Time;durP1;ratioP1;P1;durP2;ratioP2;P2;SDS_P1;SDS_P2;PMS_P1;PMS_P2;Temp;Humidity;BMP_temperature;BMP_pressure;BME280_temperature;BME280_humidity;BME280_pressure;Samples;Min_cycle;Max_cycle;Signal;HPM_P1;HPM_P2
2024/01/12 00:00:56;;;;;;;50.35;22.30;;;-1.10;99.90;;;;;;5012917;28;20130;-85
2024/01/12 00:03:23;;;;;;;52.20;22.15;;;-1.10;99.90;;;;;;4995550;28;20039;-85
2024/01/12 00:05:49;;;;;;;39.72;17.25;;;-1.00;99.90;;;;;;5008890;28;20117;-85
2024/01/12 00:08:16;;;;;;;40.03;17.80;;;-1.00;99.90;;;;;;4991039;28;20042;-85
2024/01/12 00:10:43;;;;;;;40.97;16.48;;;-0.90;99.90;;;;;;5004202;28;20100;-85
2024/01/12 00:13:09;;;;;;;35.08;16.30;;;-1.00;99.90;;;;;;5003067;28;20058;-85
2024/01/12 00:15:36;;;;;;;34.75;15.90;;;-0.90;99.90;;;;;;5008811;28;20041;-85
2024/01/12 00:18:03;;;;;;;36.42;15.40;;;-0.90;99.90;;;;;;4993181;28;20127;-85
2024/01/12 00:20:29;;;;;;;34.72;15.82;;;-0.90;99.90;;;;;;5021450;28;20045;-86
2024/01/12 00:22:57;;;;;;;29.67;13.40;;;0.30;99.90;;;;;;4999184;28;20049;-85
2024/01/12 00:25:24;;;;;;;36.00;14.30;;;-0.80;99.90;;;;;;4995914;28;20125;-85
2024/01/12 00:27:50;;;;;;;33.80;14.05;;;-0.70;99.90;;;;;;5005549;28;20098;-85
2024/01/12 00:30:17;;;;;;;35.63;13.57;;;-0.70;99.90;;;;;;4996337;28;20862;-85
2024/01/12 00:32:44;;;;;;;41.55;13.40;;;-0.70;99.90;;;;;;4992573;28;20133;-85
2024/01/12 00:35:10;;;;;;;33.33;13.88;;;0.60;99.90;;;;;;5005847;28;20042;-85
2024/01/12 00:37:37;;;;;;;31.48;12.73;;;-0.80;99.90;;;;;;5004923;28;20047;-85
2024/01/12 00:40:04;;;;;;;35.90;13.63;;;-0.60;99.90;;;;;;4979796;28;20492;-85
2024/01/12 00:42:30;;;;;;;34.00;12.85;;;-0.60;99.90;;;;;;4992344;28;20122;-85
2024/01/12 00:44:57;;;;;;;29.52;12.75;;;-0.50;99.90;;;;;;4983724;28;20038;-85
2024/01/12 00:47:24;;;;;;;39.80;13.20;;;0.60;99.90;;;;;;4992294;28;20074;-85
2024/01/12 00:49:51;;;;;;;26.58;12.00;;;-0.50;99.90;;;;;;4998814;28;20443;-85
2024/01/12 00:52:17;;;;;;;29.90;13.02;;;-0.50;99.90;;;;;;5000519;28;20045;-85
2024/01/12 00:54:44;;;;;;;28.70;11.93;;;-0.40;99.90;;;;;;5003383;28;20399;-85
2024/01/12 00:57:11;;;;;;;21.27;9.70;;;-0.40;99.90;;;;;;4989839;28;20086;-85
2024/01/12 00:59:39;;;;;;;31.48;10.02;;;0.90;99.90;;;;;;4992269;28;20042;-85
2024/01/12 01:02:05;;;;;;;19.73;8.63;;;-0.20;99.90;;;;;;4994939;28;20049;-85
2024/01/12 01:04:32;;;;;;;25.27;9.82;;;-0.20;99.90;;;;;;5008553;28;20043;-85
2024/01/12 01:06:59;;;;;;;23.13;8.60;;;1.00;99.90;;;;;;5018728;28;20061;-85
2024/01/12 01:09:25;;;;;;;19.77;8.88;;;-0.10;99.90;;;;;;5011891;28;20054;-85
2024/01/12 01:11:52;;;;;;;31.73;8.10;;;-0.10;99.90;;;;;;5031193;28;20041;-85
2024/01/12 01:14:19;;;;;;;19.27;7.40;;;-0.10;99.90;;;;;;5000810;28;20045;-85
2024/01/12 01:16:45;;;;;;;19.83;8.38;;;0.00;99.90;;;;;;4995191;28;20034;-85
2024/01/12 01:19:12;;;;;;;17.77;8.52;;;0.40;99.90;;;;;;4997076;28;20407;-85
2024/01/12 01:21:39;;;;;;;22.15;8.05;;;0.00;99.90;;;;;;5006245;28;20030;-85
2024/01/12 01:24:06;;;;;;;20.33;7.43;;;0.00;99.90;;;;;;5011226;28;20038;-85
2024/01/12 01:26:32;;;;;;;19.95;7.00;;;0.10;99.90;;;;;;5011270;28;20046;-85
2024/01/12 01:28:59;;;;;;;17.02;6.70;;;0.10;99.90;;;;;;4997927;28;20042;-85
2024/01/12 01:31:25;;;;;;;18.45;7.60;;;0.20;99.90;;;;;;5005178;28;20125;-85
2024/01/12 01:33:52;;;;;;;22.90;7.32;;;0.30;99.90;;;;;;4994860;28;20126;-85
2024/01/12 01:36:19;;;;;;;21.27;7.03;;;0.30;99.90;;;;;;5004831;28;20037;-85
2024/01/12 01:38:45;;;;;;;17.10;7.13;;;1.30;99.90;;;;;;5014321;28;20042;-85
2024/01/12 01:41:12;;;;;;;19.70;7.05;;;1.70;99.90;;;;;;5007629;28;20049;-85
2024/01/12 01:43:38;;;;;;;21.52;7.95;;;1.60;99.90;;;;;;5010776;28;20045;-85
2024/01/12 01:46:06;;;;;;;14.82;6.70;;;1.70;99.90;;;;;;4994702;28;20525;-85
2024/01/12 01:48:33;;;;;;;20.25;7.05;;;0.70;99.90;;;;;;4994701;28;20045;-85
2024/01/12 01:51:00;;;;;;;16.10;5.75;;;0.70;99.90;;;;;;4994639;28;20092;-85
2024/01/12 01:53:27;;;;;;;11.15;6.15;;;1.80;99.90;;;;;;4983913;28;20038;-85
2024/01/12 01:55:53;;;;;;;27.88;6.35;;;1.10;99.90;;;;;;5011476;28;20042;-85
2024/01/12 01:58:20;;;;;;;16.13;6.45;;;1.70;99.90;;;;;;5005311;28;20046;-85
2024/01/12 02:00:49;;;;;;;19.00;6.43;;;1.80;99.90;;;;;;5025323;28;20395;-85
2024/01/12 02:03:16;;;;;;;14.65;5.75;;;0.80;99.90;;;;;;5001884;28;20044;-85
2024/01/12 02:05:43;;;;;;;18.17;6.22;;;0.80;99.90;;;;;;5008261;28;20818;-84
2024/01/12 02:08:09;;;;;;;14.65;5.93;;;1.90;99.90;;;;;;4998847;28;20129;-85
2024/01/12 02:10:36;;;;;;;16.17;5.53;;;0.90;99.90;;;;;;4988246;28;20539;-85
2024/01/12 02:13:03;;;;;;;13.45;5.93;;;0.90;99.90;;;;;;5009147;28;20130;-85
2024/01/12 02:15:30;;;;;;;12.15;5.65;;;0.90;99.90;;;;;;4998756;28;20495;-85
2024/01/12 02:17:56;;;;;;;14.93;5.88;;;0.90;99.90;;;;;;5000415;28;20070;-85
2024/01/12 02:20:23;;;;;;;12.40;5.75;;;2.30;99.90;;;;;;4986926;28;20074;-86
2024/01/12 02:22:49;;;;;;;13.90;5.25;;;0.90;99.90;;;;;;5013305;28;20129;-85
2024/01/12 02:25:17;;;;;;;20.10;5.22;;;2.00;99.90;;;;;;4998365;28;20041;-85
2024/01/12 02:27:44;;;;;;;16.98;5.80;;;1.00;99.90;;;;;;4992259;28;20451;-85
2024/01/12 02:30:11;;;;;;;14.73;5.65;;;1.40;99.90;;;;;;4994812;28;20044;-85
2024/01/12 02:32:37;;;;;;;18.33;5.53;;;1.00;99.90;;;;;;5001525;28;20046;-84
2024/01/12 02:35:04;;;;;;;16.02;5.75;;;1.00;99.90;;;;;;5014206;28;20101;-85
2024/01/12 02:37:31;;;;;;;9.07;4.75;;;1.00;99.90;;;;;;5017345;28;20519;-85
2024/01/12 02:39:58;;;;;;;10.73;5.10;;;1.70;99.90;;;;;;5004734;28;20034;-85
2024/01/12 02:42:24;;;;;;;15.10;4.82;;;1.90;99.90;;;;;;5004641;28;20037;-85
2024/01/12 02:44:51;;;;;;;12.75;5.25;;;2.10;99.90;;;;;;5017282;28;20053;-85
2024/01/12 02:47:17;;;;;;;17.58;4.93;;;0.80;99.90;;;;;;5013254;28;20427;-85
2024/01/12 02:49:44;;;;;;;11.95;5.30;;;0.80;99.90;;;;;;5008418;28;20038;-85
2024/01/12 02:52:11;;;;;;;22.13;4.43;;;0.80;99.90;;;;;;5016042;28;20495;-85
2024/01/12 02:54:37;;;;;;;21.23;5.28;;;0.80;99.90;;;;;;5014695;28;20041;-85
2024/01/12 02:57:04;;;;;;;12.43;5.13;;;0.80;99.90;;;;;;4985080;28;20073;-85
2024/01/12 02:59:31;;;;;;;13.02;4.72;;;0.80;99.90;;;;;;4997698;28;20502;-84
2024/01/12 03:01:57;;;;;;;15.15;4.43;;;0.80;99.90;;;;;;4997473;28;20387;-85
2024/01/12 03:04:24;;;;;;;9.95;4.50;;;0.80;99.90;;;;;;5015028;28;20050;-85
2024/01/12 03:06:50;;;;;;;16.05;5.20;;;0.70;99.90;;;;;;4997024;28;20509;-85
2024/01/12 03:09:17;;;;;;;14.05;5.30;;;1.70;99.90;;;;;;4984953;28;20042;-85
2024/01/12 03:11:44;;;;;;;19.33;4.70;;;0.70;99.90;;;;;;5028335;28;20048;-85
2024/01/12 03:14:11;;;;;;;13.98;4.50;;;0.70;99.90;;;;;;4984664;28;20051;-85
2024/01/12 03:16:37;;;;;;;11.27;4.70;;;0.60;99.90;;;;;;4997733;28;20125;-85
2024/01/12 03:19:04;;;;;;;16.25;4.80;;;1.70;99.90;;;;;;5007892;28;20463;-85
2024/01/12 03:21:30;;;;;;;16.55;5.38;;;0.40;99.90;;;;;;5016673;28;20033;-85
2024/01/12 03:23:57;;;;;;;23.88;5.00;;;0.30;99.90;;;;;;5003001;28;20046;-85
2024/01/12 03:26:24;;;;;;;11.77;4.88;;;0.30;99.90;;;;;;5017069;28;20045;-85
2024/01/12 03:28:50;;;;;;;14.05;4.68;;;0.20;99.90;;;;;;5031111;28;20100;-85
2024/01/12 03:31:19;;;;;;;11.82;4.70;;;1.00;99.90;;;;;;4988952;28;20538;-85
2024/01/12 03:33:46;;;;;;;12.10;4.82;;;0.20;99.90;;;;;;4998387;28;20038;-85
2024/01/12 03:36:13;;;;;;;14.38;5.25;;;1.50;99.90;;;;;;5016000;28;20536;-85
2024/01/12 03:38:40;;;;;;;9.68;4.38;;;0.40;99.90;;;;;;5003515;28;20072;-85
2024/01/12 03:41:06;;;;;;;14.77;4.60;;;0.50;99.90;;;;;;5010551;28;20468;-85
2024/01/12 03:43:33;;;;;;;17.45;5.63;;;0.50;99.90;;;;;;4996768;28;20038;-85
2024/01/12 03:46:00;;;;;;;14.80;4.53;;;0.60;99.90;;;;;;5003734;28;20498;-85
2024/01/12 03:48:26;;;;;;;13.07;4.93;;;1.80;99.90;;;;;;5009653;28;20128;-85
2024/01/12 03:50:53;;;;;;;19.20;5.10;;;0.70;99.90;;;;;;5009290;28;20054;-85
2024/01/12 03:53:19;;;;;;;9.25;5.07;;;1.30;99.90;;;;;;5012685;28;20045;-85
2024/01/12 03:55:46;;;;;;;15.23;5.22;;;0.90;99.90;;;;;;4996618;28;20515;-85
2024/01/12 03:58:14;;;;;;;14.95;5.90;;;1.80;99.90;;;;;;5009689;28;20034;-85
2024/01/12 04:00:41;;;;;;;13.93;5.00;;;1.40;99.90;;;;;;4988402;28;20043;-85
2024/01/12 04:03:07;;;;;;;14.73;5.22;;;1.00;99.90;;;;;;4997536;28;20097;-85
2024/01/12 04:05:34;;;;;;;15.15;5.45;;;1.00;99.90;;;;;;5007307;28;20039;-85
2024/01/12 04:08:00;;;;;;;11.57;5.32;;;1.90;99.90;;;;;;4996378;28;20133;-85
2024/01/12 04:10:27;;;;;;;17.60;4.68;;;1.20;99.90;;;;;;4996377;28;20042;-85
2024/01/12 04:12:54;;;;;;;13.63;5.57;;;2.50;99.90;;;;;;4999120;28;20120;-85
2024/01/12 04:15:20;;;;;;;14.82;5.50;;;2.30;99.90;;;;;;5006031;28;20034;-85
2024/01/12 04:17:47;;;;;;;13.65;5.30;;;1.50;99.90;;;;;;4996299;28;20085;-85
2024/01/12 04:20:14;;;;;;;15.15;5.05;;;2.20;99.90;;;;;;5005821;28;20041;-85
2024/01/12 04:22:40;;;;;;;15.90;5.80;;;1.40;99.90;;;;;;5002605;28;20442;-85
2024/01/12 04:25:07;;;;;;;23.80;4.80;;;1.40;99.90;;;;;;5015539;28;20046;-85
2024/01/12 04:27:34;;;;;;;15.20;4.88;;;1.40;99.90;;;;;;5002654;28;20034;-85
2024/01/12 04:30:01;;;;;;;12.60;5.15;;;1.40;99.90;;;;;;5004060;28;20049;-85
2024/01/12 04:32:27;;;;;;;18.52;5.43;;;1.40;99.90;;;;;;4993108;28;20403;-84
2024/01/12 04:34:54;;;;;;;13.25;5.03;;;1.40;99.90;;;;;;4984476;28;20473;-85
2024/01/12 04:37:21;;;;;;;16.95;5.22;;;1.40;99.90;;;;;;4999123;28;20103;-85
2024/01/12 04:39:48;;;;;;;13.63;5.22;;;1.00;99.90;;;;;;4995844;28;20042;-85
2024/01/12 04:42:14;;;;;;;13.98;5.07;;;1.40;99.90;;;;;;5008005;28;20076;-85
2024/01/12 04:44:43;;;;;;;16.33;5.50;;;1.40;99.90;;;;;;5004496;28;20050;-85
2024/01/12 04:47:10;;;;;;;19.83;5.00;;;1.70;99.90;;;;;;4999273;28;20553;-85
2024/01/12 04:49:36;;;;;;;17.95;5.50;;;1.40;99.90;;;;;;4995816;28;20038;-85
2024/01/12 04:52:03;;;;;;;14.48;5.70;;;1.40;99.90;;;;;;5008601;28;20562;-85
2024/01/12 04:54:30;;;;;;;12.40;5.07;;;1.30;99.90;;;;;;4986068;28;20050;-84
2024/01/12 04:56:57;;;;;;;13.48;4.45;;;1.30;99.90;;;;;;5005314;28;20039;-85
2024/01/12 04:59:24;;;;;;;11.43;4.72;;;1.20;99.90;;;;;;5002601;28;20035;-85
2024/01/12 05:01:51;;;;;;;13.75;4.65;;;1.30;99.90;;;;;;4983131;28;20045;-85
2024/01/12 05:04:17;;;;;;;30.38;5.88;;;1.20;99.90;;;;;;4991150;28;20034;-85
2024/01/12 05:06:44;;;;;;;10.13;4.90;;;2.30;99.90;;;;;;5008034;28;20049;-85
2024/01/12 05:09:10;;;;;;;13.07;4.55;;;1.20;99.90;;;;;;4995281;28;20044;-85
2024/01/12 05:11:37;;;;;;;14.85;5.15;;;1.20;99.90;;;;;;4977742;28;20794;-84
2024/01/12 05:14:05;;;;;;;18.42;5.35;;;1.10;99.90;;;;;;4987773;28;20039;-85
2024/01/12 05:16:32;;;;;;;13.98;4.53;;;1.80;99.90;;;;;;5024295;28;20042;-85
2024/01/12 05:18:59;;;;;;;13.45;5.00;;;1.10;99.90;;;;;;4995459;28;20499;-85
2024/01/12 05:21:25;;;;;;;14.23;5.13;;;1.00;99.90;;;;;;5011080;28;20510;-85
2024/01/12 05:23:52;;;;;;;15.70;4.35;;;1.10;99.90;;;;;;4982650;28;20030;-84
2024/01/12 05:26:19;;;;;;;22.88;5.63;;;1.00;99.90;;;;;;5011056;28;20104;-85
2024/01/12 05:28:45;;;;;;;15.80;5.03;;;1.90;99.90;;;;;;4983297;28;20043;-84
2024/01/12 05:31:14;;;;;;;19.75;5.22;;;1.00;99.90;;;;;;5006658;28;20392;-85
2024/01/12 05:33:40;;;;;;;14.98;5.10;;;1.00;99.90;;;;;;4996409;28;20038;-85
2024/01/12 05:36:07;;;;;;;15.70;4.85;;;1.00;99.90;;;;;;5014350;28;20053;-85
2024/01/12 05:38:34;;;;;;;15.10;5.50;;;1.10;99.90;;;;;;5012797;28;20084;-84
2024/01/12 05:41:00;;;;;;;15.77;4.30;;;1.20;99.90;;;;;;4999114;28;20045;-85
2024/01/12 05:43:27;;;;;;;19.23;4.97;;;1.80;99.90;;;;;;4997792;28;20118;-84
2024/01/12 05:45:54;;;;;;;24.48;5.18;;;1.00;99.90;;;;;;4983738;28;20144;-84
2024/01/12 05:48:20;;;;;;;13.65;5.18;;;1.00;99.90;;;;;;5011152;28;20046;-85
2024/01/12 05:50:47;;;;;;;17.95;5.47;;;1.70;99.90;;;;;;5001963;28;20081;-84
2024/01/12 05:53:13;;;;;;;18.77;4.68;;;1.00;99.90;;;;;;4998003;28;20659;-85
2024/01/12 05:55:40;;;;;;;17.73;4.90;;;1.90;99.90;;;;;;4994712;28;20045;-85
2024/01/12 05:58:07;;;;;;;19.58;5.38;;;1.00;99.90;;;;;;5007386;28;20153;-85
2024/01/12 06:00:33;;;;;;;17.58;5.13;;;1.30;99.90;;;;;;4994977;28;20034;-85
2024/01/12 06:03:00;;;;;;;16.52;5.22;;;2.10;99.90;;;;;;5012730;28;20514;-85
2024/01/12 06:05:26;;;;;;;11.88;5.10;;;1.60;99.90;;;;;;5021520;28;20054;-85
2024/01/12 06:07:53;;;;;;;21.50;5.18;;;1.90;99.90;;;;;;5007737;28;20073;-85
2024/01/12 06:10:20;;;;;;;17.83;4.93;;;0.90;99.90;;;;;;4994684;28;20121;-85
2024/01/12 06:12:46;;;;;;;19.60;5.75;;;0.90;99.90;;;;;;4994725;28;20088;-85
2024/01/12 06:15:13;;;;;;;25.77;5.63;;;1.00;99.90;;;;;;4999334;28;20034;-85
2024/01/12 06:17:39;;;;;;;14.43;5.10;;;0.80;99.90;;;;;;4990778;28;20125;-85
2024/01/12 06:20:07;;;;;;;15.57;5.07;;;0.90;99.90;;;;;;4991194;28;20124;-85
2024/01/12 06:22:34;;;;;;;18.33;5.30;;;0.90;99.90;;;;;;5008287;28;20046;-85
2024/01/12 06:25:00;;;;;;;17.02;5.28;;;0.90;99.90;;;;;;5000411;28;20046;-85
2024/01/12 06:27:27;;;;;;;12.45;4.78;;;2.30;99.90;;;;;;5012076;28;20045;-85
2024/01/12 06:29:54;;;;;;;16.65;5.47;;;2.10;99.90;;;;;;5004970;28;20144;-85
2024/01/12 06:32:20;;;;;;;14.07;5.82;;;0.90;99.90;;;;;;4994604;28;20062;-85
2024/01/12 06:34:47;;;;;;;19.83;6.00;;;0.90;99.90;;;;;;5011527;28;20172;-85
2024/01/12 06:37:14;;;;;;;17.20;5.88;;;1.00;99.90;;;;;;4992465;28;20467;-85
2024/01/12 06:39:40;;;;;;;18.05;6.05;;;1.00;99.90;;;;;;5001987;28;20038;-85
2024/01/12 06:42:07;;;;;;;18.30;5.75;;;1.00;99.90;;;;;;5011005;28;20062;-84
2024/01/12 06:44:39;;;;;;;17.83;5.57;;;1.10;99.90;;;;;;4998211;28;20073;-85
2024/01/12 06:47:07;;;;;;;19.27;5.35;;;1.00;99.90;;;;;;5010783;28;20045;-85
2024/01/12 06:49:34;;;;;;;21.05;5.65;;;2.20;99.90;;;;;;5006204;28;20092;-85
2024/01/12 06:52:01;;;;;;;13.77;5.68;;;1.00;99.90;;;;;;5017156;28;20077;-85
2024/01/12 06:54:27;;;;;;;28.15;6.68;;;2.10;99.90;;;;;;5033495;28;20073;-85
2024/01/12 06:56:56;;;;;;;18.75;6.18;;;1.00;99.90;;;;;;5001510;28;20065;-85
2024/01/12 06:59:23;;;;;;;15.95;5.43;;;1.00;99.90;;;;;;4997662;28;20076;-85
2024/01/12 07:01:49;;;;;;;18.85;6.15;;;1.70;99.90;;;;;;4997780;28;20128;-85
2024/01/12 07:04:16;;;;;;;22.95;6.22;;;1.00;99.90;;;;;;5003509;28;20125;-85
2024/01/12 07:06:43;;;;;;;21.63;6.13;;;1.00;99.90;;;;;;5007944;28;20051;-85
2024/01/12 07:09:12;;;;;;;14.65;5.85;;;2.30;99.90;;;;;;4988840;28;20046;-85
2024/01/12 07:11:41;;;;;;;12.82;6.10;;;1.40;99.90;;;;;;4984653;28;20752;-85
2024/01/12 07:14:09;;;;;;;19.45;5.95;;;1.90;99.90;;;;;;5029748;28;20073;-85
2024/01/12 07:16:37;;;;;;;21.55;6.70;;;1.10;99.90;;;;;;5003476;28;20183;-86
2024/01/12 07:19:04;;;;;;;18.17;5.93;;;1.10;99.90;;;;;;5032077;28;20042;-86
2024/01/12 07:21:30;;;;;;;17.55;6.35;;;1.10;99.90;;;;;;4997379;28;20442;-85
2024/01/12 07:23:57;;;;;;;17.27;6.07;;;2.10;99.90;;;;;;4997644;28;20039;-85
2024/01/12 07:26:23;;;;;;;18.50;5.80;;;1.10;99.90;;;;;;4998689;28;20136;-85
2024/01/12 07:28:50;;;;;;;20.02;6.78;;;2.20;99.90;;;;;;4989380;28;20033;-85
2024/01/12 07:31:18;;;;;;;23.95;6.15;;;1.10;99.90;;;;;;4984748;28;20042;-85
2024/01/12 07:33:44;;;;;;;26.58;6.50;;;1.40;99.90;;;;;;5017414;28;20034;-85
2024/01/12 07:36:11;;;;;;;22.23;6.40;;;1.90;99.90;;;;;;4998326;28;20566;-85
2024/01/12 07:38:38;;;;;;;25.60;6.28;;;1.90;99.90;;;;;;5003215;28;20038;-83
2024/01/12 07:41:04;;;;;;;17.95;5.80;;;1.70;99.90;;;;;;5001997;28;20039;-83
2024/01/12 07:43:31;;;;;;;20.88;5.95;;;1.10;99.90;;;;;;5022890;28;20054;-82
2024/01/12 07:45:59;;;;;;;17.55;5.60;;;1.10;99.90;;;;;;4996240;28;20471;-84
2024/01/12 07:48:25;;;;;;;19.17;6.43;;;2.20;99.90;;;;;;5006631;28;20050;-84
2024/01/12 07:50:52;;;;;;;27.73;5.70;;;1.10;99.90;;;;;;5004163;28;20054;-84
2024/01/12 07:53:19;;;;;;;29.33;6.10;;;1.10;99.90;;;;;;5011943;28;20126;-84
2024/01/12 07:55:46;;;;;;;20.60;7.30;;;1.10;99.90;;;;;;5001328;28;20518;-83
2024/01/12 07:58:13;;;;;;;16.88;5.95;;;1.20;99.90;;;;;;4993512;28;20038;-85
2024/01/12 08:00:39;;;;;;;17.05;5.35;;;1.20;99.90;;;;;;4985647;28;20102;-85
2024/01/12 08:03:06;;;;;;;16.58;5.35;;;1.20;99.90;;;;;;4990196;28;20030;-84
2024/01/12 08:05:33;;;;;;;18.77;5.90;;;1.20;99.90;;;;;;5003663;28;20046;-84
2024/01/12 08:07:59;;;;;;;26.55;7.65;;;1.20;99.90;;;;;;4990481;28;20038;-84
2024/01/12 08:10:26;;;;;;;16.60;7.43;;;2.20;99.90;;;;;;4998956;28;20112;-84
2024/01/12 08:12:53;;;;;;;27.27;8.45;;;2.00;99.90;;;;;;4996268;28;20046;-84
2024/01/12 08:15:19;;;;;;;27.40;8.88;;;2.00;99.90;;;;;;4990931;28;20043;-84
2024/01/12 08:17:46;;;;;;;22.30;8.63;;;2.00;99.90;;;;;;5002445;28;20479;-83
2024/01/12 08:20:14;;;;;;;19.48;5.75;;;1.10;99.90;;;;;;5012237;28;20120;-84
2024/01/12 08:22:40;;;;;;;19.00;5.65;;;1.90;99.90;;;;;;5020894;28;20073;-84
2024/01/12 08:25:07;;;;;;;30.15;5.93;;;1.20;99.90;;;;;;4994260;28;20046;-84
2024/01/12 08:27:34;;;;;;;27.90;7.70;;;1.20;99.90;;;;;;4986206;28;20120;-84
2024/01/12 08:30:00;;;;;;;29.80;7.88;;;1.20;99.90;;;;;;5008603;28;20131;-84
2024/01/12 08:32:27;;;;;;;33.15;10.68;;;1.20;99.90;;;;;;4987144;28;20046;-84
2024/01/12 08:34:54;;;;;;;25.08;9.75;;;2.00;99.90;;;;;;4987505;28;20425;-84
2024/01/12 08:37:20;;;;;;;41.60;11.10;;;1.20;99.90;;;;;;4998791;28;20491;-84
2024/01/12 08:39:47;;;;;;;23.15;7.05;;;1.20;99.90;;;;;;5001946;28;20096;-84
2024/01/12 08:42:14;;;;;;;20.80;5.68;;;1.30;99.90;;;;;;5001164;28;20076;-84
2024/01/12 08:44:41;;;;;;;19.83;5.72;;;1.60;99.90;;;;;;5017033;28;20037;-84
2024/01/12 08:47:07;;;;;;;24.08;7.63;;;1.30;99.90;;;;;;5017535;28;20078;-84
2024/01/12 08:49:34;;;;;;;23.60;6.75;;;1.40;99.90;;;;;;4995064;28;20077;-84
2024/01/12 08:52:01;;;;;;;23.23;6.95;;;1.40;99.90;;;;;;5008496;28;20052;-83
2024/01/12 08:54:27;;;;;;;19.50;5.30;;;2.40;99.90;;;;;;4996408;28;20070;-84
2024/01/12 08:56:54;;;;;;;21.70;5.30;;;1.40;99.90;;;;;;4998459;28;20109;-84
2024/01/12 08:59:21;;;;;;;23.52;5.30;;;1.40;99.90;;;;;;4989289;28;20039;-84
2024/01/12 09:01:48;;;;;;;19.65;6.07;;;1.40;99.90;;;;;;5008784;28;20076;-84
2024/01/12 09:04:14;;;;;;;22.63;4.88;;;1.50;99.90;;;;;;4987974;28;20479;-83
2024/01/12 09:06:41;;;;;;;22.13;5.95;;;1.50;99.90;;;;;;5001256;28;20503;-83
2024/01/12 09:09:08;;;;;;;20.15;5.65;;;2.50;99.90;;;;;;4995078;28;20046;-83
2024/01/12 09:11:35;;;;;;;19.20;5.07;;;1.50;99.90;;;;;;5035747;28;20064;-84
2024/01/12 09:14:02;;;;;;;14.88;4.57;;;2.50;99.90;;;;;;5000823;28;20041;-84
2024/01/12 09:16:29;;;;;;;22.38;5.43;;;1.50;99.90;;;;;;4995160;28;20038;-84
2024/01/12 09:18:56;;;;;;;16.70;4.10;;;1.60;99.90;;;;;;5003437;28;20045;-84
2024/01/12 09:21:24;;;;;;;17.35;5.13;;;1.60;99.90;;;;;;4975759;28;20130;-83
2024/01/12 09:23:50;;;;;;;23.25;5.28;;;2.50;99.90;;;;;;5020441;28;20436;-83
2024/01/12 09:26:17;;;;;;;23.98;5.07;;;2.80;99.90;;;;;;5033518;28;20087;-83
2024/01/12 09:28:44;;;;;;;11.48;4.43;;;1.60;99.90;;;;;;5025672;28;20026;-83
2024/01/12 09:31:10;;;;;;;15.80;4.47;;;1.70;99.90;;;;;;4992639;28;20039;-83
2024/01/12 09:33:37;;;;;;;21.52;5.20;;;1.70;99.90;;;;;;5008547;28;20069;-83
2024/01/12 09:36:04;;;;;;;23.70;4.85;;;1.80;99.90;;;;;;5010810;28;20410;-83
2024/01/12 09:38:30;;;;;;;19.58;4.50;;;1.80;99.90;;;;;;4983894;28;20384;-82
2024/01/12 09:40:58;;;;;;;22.38;4.95;;;1.90;99.90;;;;;;5022333;28;20045;-83
2024/01/12 09:43:29;;;;;;;16.33;4.65;;;1.90;99.90;;;;;;5011259;28;20042;-83
2024/01/12 09:46:02;;;;;;;15.18;4.05;;;2.20;99.90;;;;;;5005916;28;20095;-84
2024/01/12 09:48:29;;;;;;;21.45;4.35;;;2.80;99.90;;;;;;4997889;28;20038;-83
2024/01/12 09:50:58;;;;;;;22.92;4.60;;;2.00;99.90;;;;;;5013215;28;20152;-83
2024/01/12 09:53:25;;;;;;;19.88;3.83;;;2.10;99.90;;;;;;5014328;28;20049;-83
2024/01/12 09:55:51;;;;;;;14.82;3.70;;;2.10;99.90;;;;;;4999712;28;20046;-83
2024/01/12 09:58:20;;;;;;;17.48;4.13;;;2.20;99.90;;;;;;5005263;28;20038;-83
2024/01/12 10:00:50;;;;;;;20.08;3.72;;;2.20;99.90;;;;;;5000965;28;20037;-83
2024/01/12 10:03:17;;;;;;;20.45;4.25;;;2.60;99.90;;;;;;5014117;28;20030;-83
2024/01/12 10:05:44;;;;;;;17.00;3.80;;;2.20;99.90;;;;;;5003797;28;20157;-83
2024/01/12 10:08:11;;;;;;;19.00;3.35;;;3.30;99.90;;;;;;5001294;28;20044;-84
2024/01/12 10:10:39;;;;;;;22.55;3.75;;;2.30;99.90;;;;;;4999660;28;20411;-84
2024/01/12 10:13:05;;;;;;;14.75;3.95;;;2.30;99.90;;;;;;4990319;28;20466;-84
2024/01/12 10:15:40;;;;;;;18.17;3.20;;;3.30;99.90;;;;;;5001018;28;20116;-83
2024/01/12 10:18:06;;;;;;;17.35;2.85;;;2.50;99.90;;;;;;5002957;28;20034;-84
2024/01/12 10:20:37;;;;;;;17.00;2.53;;;3.00;99.90;;;;;;5021577;28;20030;-83
2024/01/12 10:23:03;;;;;;;26.23;3.08;;;2.70;99.90;;;;;;5016019;28;20034;-82
2024/01/12 10:25:30;;;;;;;25.63;3.30;;;2.80;99.90;;;;;;4990145;28;20459;-84
2024/01/12 10:27:58;;;;;;;14.68;3.33;;;2.90;99.90;;;;;;5013336;28;20438;-83
2024/01/12 10:30:25;;;;;;;13.75;3.13;;;2.90;99.90;;;;;;5033823;28;20499;-84
2024/01/12 10:32:53;;;;;;;22.65;2.88;;;2.90;99.90;;;;;;5008460;28;20065;-83
2024/01/12 10:35:20;;;;;;;23.38;3.92;;;3.50;99.90;;;;;;5026685;28;20125;-84
2024/01/12 10:37:49;;;;;;;8.43;2.53;;;3.10;99.90;;;;;;4986389;28;20039;-84
2024/01/12 10:40:17;;;;;;;17.63;2.70;;;4.10;99.90;;;;;;5013278;28;20615;-83
2024/01/12 10:42:50;;;;;;;20.67;3.50;;;3.20;99.90;;;;;;5033555;28;20124;-84
2024/01/12 10:45:21;;;;;;;21.75;3.20;;;3.70;99.90;;;;;;5016429;28;20089;-83
2024/01/12 10:47:55;;;;;;;22.58;2.50;;;4.10;99.90;;;;;;5005146;28;20045;-84
2024/01/12 10:50:24;;;;;;;17.27;2.70;;;3.30;99.90;;;;;;4988588;29;20051;-83
2024/01/12 10:52:54;;;;;;;14.60;2.20;;;3.50;99.90;;;;;;5032670;28;20049;-83
2024/01/12 10:55:22;;;;;;;17.25;2.58;;;3.30;99.90;;;;;;5014194;28;20042;-84
2024/01/12 10:57:51;;;;;;;21.10;2.95;;;3.30;99.90;;;;;;5014364;28;20038;-85
2024/01/12 11:00:19;;;;;;;11.13;2.55;;;4.40;99.90;;;;;;5004010;28;20039;-84
2024/01/12 11:02:48;;;;;;;15.13;2.67;;;3.70;99.90;;;;;;5003475;28;20038;-85
2024/01/12 11:05:16;;;;;;;12.10;2.60;;;3.40;99.90;;;;;;4999485;28;20106;-85
2024/01/12 11:07:43;;;;;;;16.90;2.30;;;4.30;99.90;;;;;;4996984;28;20045;-84
2024/01/12 11:10:11;;;;;;;13.63;2.85;;;4.20;99.90;;;;;;4981352;28;20518;-83
2024/01/12 11:12:40;;;;;;;14.68;2.20;;;4.70;99.90;;;;;;5026527;28;20047;-85
2024/01/12 11:15:07;;;;;;;18.92;2.47;;;4.30;99.90;;;;;;4993986;28;20078;-84
2024/01/12 11:17:35;;;;;;;17.55;2.30;;;3.40;99.90;;;;;;4981492;28;20043;-84
2024/01/12 11:20:16;;;;;;;14.45;2.25;;;3.40;99.90;;;;;;4994151;28;20077;-85
2024/01/12 11:22:48;;;;;;;21.88;2.40;;;3.40;99.90;;;;;;4994502;28;20111;-85
2024/01/12 11:25:18;;;;;;;14.52;3.25;;;3.50;99.90;;;;;;4993985;28;20056;-86
2024/01/12 11:27:49;;;;;;;24.20;2.38;;;3.50;99.90;;;;;;4981787;28;20500;-85
2024/01/12 11:30:18;;;;;;;15.98;2.25;;;3.50;99.90;;;;;;5014592;28;20481;-85
2024/01/12 11:32:45;;;;;;;19.30;2.22;;;4.10;99.90;;;;;;5022481;28;20039;-85
2024/01/12 11:35:17;;;;;;;12.52;1.80;;;3.60;99.90;;;;;;4979161;29;20043;-85
2024/01/12 11:37:45;;;;;;;13.18;2.08;;;4.00;99.90;;;;;;5005863;28;20035;-86
2024/01/12 11:40:15;;;;;;;15.40;2.60;;;3.70;99.90;;;;;;4987130;28;20031;-85
2024/01/12 11:42:43;;;;;;;21.45;2.80;;;4.00;99.90;;;;;;5011671;28;20035;-86
2024/01/12 11:45:11;;;;;;;17.13;2.47;;;3.70;99.90;;;;;;5001260;28;20506;-85
2024/01/12 11:47:39;;;;;;;18.55;2.25;;;4.30;99.90;;;;;;4996959;28;20039;-85
2024/01/12 11:50:07;;;;;;;12.25;1.90;;;3.80;99.90;;;;;;5020968;28;20057;-85
2024/01/12 11:52:38;;;;;;;19.92;3.03;;;3.80;99.90;;;;;;4987877;28;20197;-86
2024/01/12 11:55:09;;;;;;;14.48;2.20;;;3.80;99.90;;;;;;4985150;28;20047;-86
2024/01/12 11:57:37;;;;;;;15.55;2.85;;;3.80;99.90;;;;;;5007217;28;20042;-86
2024/01/12 12:00:06;;;;;;;12.27;2.70;;;3.80;99.90;;;;;;5001521;28;20054;-86
2024/01/12 12:02:35;;;;;;;20.60;2.50;;;3.80;99.90;;;;;;4984499;28;20404;-85
2024/01/12 12:05:14;;;;;;;15.50;2.50;;;3.80;99.90;;;;;;4994895;28;20043;-86
2024/01/12 12:07:41;;;;;;;14.50;2.83;;;3.80;99.90;;;;;;5020334;28;20046;-86
2024/01/12 12:10:09;;;;;;;21.20;3.00;;;5.00;99.90;;;;;;4993085;28;20416;-86
2024/01/12 12:12:37;;;;;;;14.43;2.40;;;3.90;99.90;;;;;;4992462;28;20055;-86
2024/01/12 12:15:04;;;;;;;13.48;2.38;;;5.00;99.90;;;;;;5005370;28;20038;-86
2024/01/12 12:17:36;;;;;;;16.80;2.22;;;3.80;99.90;;;;;;5012097;28;20043;-85
2024/01/12 12:20:05;;;;;;;13.77;2.33;;;3.80;99.90;;;;;;4992520;28;20035;-85
2024/01/12 12:22:32;;;;;;;22.17;2.50;;;3.90;99.90;;;;;;4989672;28;20070;-86
2024/01/12 12:24:58;;;;;;;15.93;2.38;;;4.90;99.90;;;;;;4996980;28;20069;-85
2024/01/12 12:27:25;;;;;;;22.08;3.30;;;4.50;99.90;;;;;;5009953;28;20058;-85
2024/01/12 12:29:54;;;;;;;26.88;2.55;;;4.60;99.90;;;;;;4984372;28;20434;-85
2024/01/12 12:32:20;;;;;;;18.20;2.40;;;3.90;99.90;;;;;;4988421;29;20039;-85
2024/01/12 12:34:47;;;;;;;13.82;2.38;;;5.10;99.90;;;;;;4988034;28;20097;-85
2024/01/12 12:37:14;;;;;;;18.33;2.70;;;3.90;99.90;;;;;;4982817;28;20084;-86
2024/01/12 12:39:42;;;;;;;12.15;2.25;;;3.90;99.90;;;;;;5001164;28;20034;-85
2024/01/12 12:42:09;;;;;;;21.77;3.72;;;3.90;99.90;;;;;;4993645;28;20043;-85
2024/01/12 12:44:35;;;;;;;21.63;2.40;;;4.90;99.90;;;;;;5013950;28;20049;-85